sensor_id;sensor_type;location;lat;lon;timestamp;pressure;altitude;pressure_sealevel;temperature;humidity
37132;BME280;23035;50.032;21.978;2024-02-28T00:02:41;64561.09;;;-5.87;100.00
37132;BME280;23035;50.032;21.978;2024-02-28T00:07:47;64600.22;;;-5.49;100.00
37132;BME280;23035;50.032;21.978;2024-02-28T00:12:51;64663.59;;;-4.91;100.00
37132;BME280;23035;50.032;21.978;2024-02-28T00:17:55;64746.31;;;-4.09;100.00
37132;BME280;23035;50.032;21.978;2024-02-28T00:23:00;64802.97;;;-3.54;100.00
37132;BME280;23035;50.032;21.978;2024-02-28T00:28:05;64717.16;;;-4.37;100.00
37132;BME280;23035;50.032;21.978;2024-02-28T00:33:09;64600.22;;;-5.49;100.00
37132;BME280;23035;50.032;21.978;2024-02-28T00:38:14;64596.50;;;-5.53;100.00
37132;BME280;23035;50.032;21.978;2024-02-28T00:43:18;64698.47;;;-4.47;100.00
37132;BME280;23035;50.032;21.978;2024-02-28T00:48:22;64674.41;;;-4.75;100.00
37132;BME280;23035;50.032;21.978;2024-02-28T00:53:28;64635.03;;;-5.18;100.00
37132;BME280;23035;50.032;21.978;2024-02-28T00:58:32;64624.66;;;-5.23;100.00
37132;BME280;23035;50.032;21.978;2024-02-28T01:03:36;64551.69;;;-5.93;100.00
37132;BME280;23035;50.032;21.978;2024-02-28T01:08:42;64522.50;;;-6.24;100.00
37132;BME280;23035;50.032;21.978;2024-02-28T01:13:46;64454.47;;;-6.87;100.00
37132;BME280;23035;50.032;21.978;2024-02-28T01:18:50;64495.16;;;-6.48;100.00
37132;BME280;23035;50.032;21.978;2024-02-28T01:23:55;64492.91;;;-6.52;100.00
37132;BME280;23035;50.032;21.978;2024-02-28T01:28:59;64519.09;;;-6.32;100.00
37132;BME280;23035;50.032;21.978;2024-02-28T01:34:04;64552.53;;;-5.97;100.00
37132;BME280;23035;50.032;21.978;2024-02-28T01:39:09;64582.34;;;-5.64;100.00
37132;BME280;23035;50.032;21.978;2024-02-28T01:44:13;64615.13;;;-5.32;100.00
37132;BME280;23035;50.032;21.978;2024-02-28T01:49:17;64616.59;;;-5.33;100.00
37132;BME280;23035;50.032;21.978;2024-02-28T01:54:23;64619.78;;;-5.30;100.00
37132;BME280;23035;50.032;21.978;2024-02-28T01:59:29;64623.38;;;-5.29;100.00
37132;BME280;23035;50.032;21.978;2024-02-28T02:04:33;64647.28;;;-5.04;100.00
37132;BME280;23035;50.032;21.978;2024-02-28T02:09:39;64569.66;;;-5.76;100.00
37132;BME280;23035;50.032;21.978;2024-02-28T02:14:47;64619.66;;;-5.33;100.00
37132;BME280;23035;50.032;21.978;2024-02-28T02:19:51;64519.34;;;-6.27;100.00
37132;BME280;23035;50.032;21.978;2024-02-28T02:24:57;64481.13;;;-6.56;100.00
37132;BME280;23035;50.032;21.978;2024-02-28T02:30:02;64446.94;;;-6.97;100.00
37132;BME280;23035;50.032;21.978;2024-02-28T02:35:06;64514.88;;;-6.36;100.00
37132;BME280;23035;50.032;21.978;2024-02-28T02:40:13;64540.91;;;-6.09;100.00
37132;BME280;23035;50.032;21.978;2024-02-28T02:45:17;64619.78;;;-5.30;100.00
37132;BME280;23035;50.032;21.978;2024-02-28T02:50:21;64612.91;;;-5.37;100.00
37132;BME280;23035;50.032;21.978;2024-02-28T02:55:27;64632.50;;;-5.18;100.00
37132;BME280;23035;50.032;21.978;2024-02-28T03:00:31;64600.41;;;-5.56;100.00
37132;BME280;23035;50.032;21.978;2024-02-28T03:05:35;64660.00;;;-4.92;100.00
37132;BME280;23035;50.032;21.978;2024-02-28T03:10:41;64672.94;;;-4.74;100.00
37132;BME280;23035;50.032;21.978;2024-02-28T03:15:45;64701.06;;;-4.57;100.00
37132;BME280;23035;50.032;21.978;2024-02-28T03:20:49;64711.47;;;-4.40;100.00
37132;BME280;23035;50.032;21.978;2024-02-28T03:25:55;64764.19;;;-3.94;100.00
37132;BME280;23035;50.032;21.978;2024-02-28T03:31:00;64750.53;;;-4.05;100.00
37132;BME280;23035;50.032;21.978;2024-02-28T03:36:05;64674.81;;;-4.77;100.00
37132;BME280;23035;50.032;21.978;2024-02-28T03:41:11;64654.72;;;-4.97;100.00
37132;BME280;23035;50.032;21.978;2024-02-28T03:46:15;64688.56;;;-4.64;100.00
37132;BME280;23035;50.032;21.978;2024-02-28T03:51:19;64703.63;;;-4.45;100.00
37132;BME280;23035;50.032;21.978;2024-02-28T03:56:24;64805.13;;;-3.52;100.00
37132;BME280;23035;50.032;21.978;2024-02-28T04:01:29;64745.78;;;-4.09;100.00
37132;BME280;23035;50.032;21.978;2024-02-28T04:06:33;64752.88;;;-3.97;100.00
37132;BME280;23035;50.032;21.978;2024-02-28T04:11:39;64825.25;;;-3.33;100.00
37132;BME280;23035;50.032;21.978;2024-02-28T04:16:44;64745.53;;;-4.14;100.00
37132;BME280;23035;50.032;21.978;2024-02-28T04:21:48;64633.53;;;-5.17;100.00
37132;BME280;23035;50.032;21.978;2024-02-28T04:26:54;64558.44;;;-5.89;100.00
37132;BME280;23035;50.032;21.978;2024-02-28T04:31:59;64443.25;;;-7.00;100.00
37132;BME280;23035;50.032;21.978;2024-02-28T04:37:03;64465.84;;;-6.81;100.00
37132;BME280;23035;50.032;21.978;2024-02-28T04:42:09;64597.56;;;-5.52;100.00
37132;BME280;23035;50.032;21.978;2024-02-28T04:47:13;64640.97;;;-5.10;100.00
37132;BME280;23035;50.032;21.978;2024-02-28T04:52:19;64683.19;;;-4.72;100.00
37132;BME280;23035;50.032;21.978;2024-02-28T04:57:27;64706.06;;;-4.47;100.00
37132;BME280;23035;50.032;21.978;2024-02-28T05:02:32;64769.72;;;-3.84;100.00
37132;BME280;23035;50.032;21.978;2024-02-28T05:07:36;64717.41;;;-4.31;100.00
37132;BME280;23035;50.032;21.978;2024-02-28T05:12:41;64786.47;;;-3.72;100.00
37132;BME280;23035;50.032;21.978;2024-02-28T05:17:46;64790.38;;;-3.64;100.00
37132;BME280;23035;50.032;21.978;2024-02-28T05:22:50;64713.47;;;-4.40;100.00
37132;BME280;23035;50.032;21.978;2024-02-28T05:27:55;64759.97;;;-3.98;100.00
37132;BME280;23035;50.032;21.978;2024-02-28T05:32:59;64736.25;;;-4.18;100.00
37132;BME280;23035;50.032;21.978;2024-02-28T05:38:04;64816.13;;;-3.44;100.00
37132;BME280;23035;50.032;21.978;2024-02-28T05:43:09;64831.06;;;-3.27;100.00
37132;BME280;23035;50.032;21.978;2024-02-28T05:48:13;64811.06;;;-3.44;100.00
37132;BME280;23035;50.032;21.978;2024-02-28T05:53:18;64841.56;;;-3.20;100.00
37132;BME280;23035;50.032;21.978;2024-02-28T05:58:23;64905.19;;;-2.58;100.00
37132;BME280;23035;50.032;21.978;2024-02-28T06:03:27;64907.84;;;-2.56;100.00
37132;BME280;23035;50.032;21.978;2024-02-28T06:08:32;64839.13;;;-3.17;100.00
37132;BME280;23035;50.032;21.978;2024-02-28T06:13:40;64860.88;;;-2.96;100.00
37132;BME280;23035;50.032;21.978;2024-02-28T06:18:44;64874.44;;;-2.88;100.00
37132;BME280;23035;50.032;21.978;2024-02-28T06:23:48;64836.91;;;-3.22;100.00
37132;BME280;23035;50.032;21.978;2024-02-28T06:28:54;64929.28;;;-2.31;100.00
37132;BME280;23035;50.032;21.978;2024-02-28T06:34:09;64943.59;;;-2.17;100.00
37132;BME280;23035;50.032;21.978;2024-02-28T06:39:17;64994.53;;;-1.68;100.00
37132;BME280;23035;50.032;21.978;2024-02-28T06:44:22;64944.03;;;-2.19;100.00
37132;BME280;23035;50.032;21.978;2024-02-28T06:49:27;64958.91;;;-2.05;100.00
37132;BME280;23035;50.032;21.978;2024-02-28T06:54:32;64871.47;;;-2.86;100.00
37132;BME280;23035;50.032;21.978;2024-02-28T06:59:42;64988.63;;;-1.76;100.00
37132;BME280;23035;50.032;21.978;2024-02-28T07:04:54;65000.28;;;-1.65;100.00
37132;BME280;23035;50.032;21.978;2024-02-28T07:09:58;65024.28;;;-1.39;96.82
37132;BME280;23035;50.032;21.978;2024-02-28T07:15:05;65048.06;;;-1.19;94.54
37132;BME280;23035;50.032;21.978;2024-02-28T07:20:10;65076.75;;;-0.92;93.40
37132;BME280;23035;50.032;21.978;2024-02-28T07:25:18;65104.38;;;-0.65;90.89
37132;BME280;23035;50.032;21.978;2024-02-28T07:30:27;65098.00;;;-0.71;92.53
37132;BME280;23035;50.032;21.978;2024-02-28T07:35:31;65088.84;;;-0.82;94.62
37132;BME280;23035;50.032;21.978;2024-02-28T07:40:35;65135.63;;;-0.38;92.03
37132;BME280;23035;50.032;21.978;2024-02-28T07:45:44;65105.44;;;-0.64;92.46
37132;BME280;23035;50.032;21.978;2024-02-28T07:50:49;65125.63;;;-0.45;90.00
37132;BME280;23035;50.032;21.978;2024-02-28T07:55:53;65113.09;;;-0.52;94.11
37132;BME280;23035;50.032;21.978;2024-02-28T08:00:58;65101.19;;;-0.68;95.29
37132;BME280;23035;50.032;21.978;2024-02-28T08:06:03;65129.78;;;-0.43;94.22
37132;BME280;23035;50.032;21.978;2024-02-28T08:11:08;65176.56;;;0.02;92.46
37132;BME280;23035;50.032;21.978;2024-02-28T08:16:13;65173.47;;;0.01;90.27
37132;BME280;23035;50.032;21.978;2024-02-28T08:21:17;65118.19;;;-0.52;96.15
37132;BME280;23035;50.032;21.978;2024-02-28T08:26:23;65007.84;;;-1.55;100.00
37132;BME280;23035;50.032;21.978;2024-02-28T08:31:29;65043.94;;;-1.21;100.00
37132;BME280;23035;50.032;21.978;2024-02-28T08:36:33;65124.88;;;-0.50;97.47
37132;BME280;23035;50.032;21.978;2024-02-28T08:41:37;65222.38;;;0.48;91.53
37132;BME280;23035;50.032;21.978;2024-02-28T08:46:42;65262.38;;;0.89;85.96
37132;BME280;23035;50.032;21.978;2024-02-28T08:51:46;65292.59;;;1.15;84.41
37132;BME280;23035;50.032;21.978;2024-02-28T08:56:52;65294.19;;;1.17;83.41
37132;BME280;23035;50.032;21.978;2024-02-28T09:02:06;65300.59;;;1.23;84.09
37132;BME280;23035;50.032;21.978;2024-02-28T09:07:11;65332.00;;;1.53;85.24
37132;BME280;23035;50.032;21.978;2024-02-28T09:12:15;65420.81;;;2.35;77.36
37132;BME280;23035;50.032;21.978;2024-02-28T09:17:20;65389.50;;;2.08;76.38
37132;BME280;23035;50.032;21.978;2024-02-28T09:22:25;65362.34;;;1.82;78.29
37132;BME280;23035;50.032;21.978;2024-02-28T09:27:30;65320.38;;;1.44;81.30
37132;BME280;23035;50.032;21.978;2024-02-28T09:32:35;65347.84;;;1.65;82.06
37132;BME280;23035;50.032;21.978;2024-02-28T09:37:39;65325.28;;;1.51;82.62
37132;BME280;23035;50.032;21.978;2024-02-28T09:42:48;65357.56;;;1.77;80.62
37132;BME280;23035;50.032;21.978;2024-02-28T09:47:56;65386.94;;;2.08;80.86
37132;BME280;23035;50.032;21.978;2024-02-28T09:53:00;65350.72;;;1.73;81.28
37132;BME280;23035;50.032;21.978;2024-02-28T09:58:13;65292.06;;;1.14;86.04
37132;BME280;23035;50.032;21.978;2024-02-28T10:03:19;65277.72;;;1.01;86.94
37132;BME280;23035;50.032;21.978;2024-02-28T10:08:23;65259.09;;;0.83;88.78
37132;BME280;23035;50.032;21.978;2024-02-28T10:13:28;65305.78;;;1.25;87.18
37132;BME280;23035;50.032;21.978;2024-02-28T10:18:34;65194.63;;;0.19;90.66
37132;BME280;23035;50.032;21.978;2024-02-28T10:23:39;65153.69;;;-0.20;95.04
37132;BME280;23035;50.032;21.978;2024-02-28T10:28:43;65208.13;;;0.37;91.22
37132;BME280;23035;50.032;21.978;2024-02-28T10:33:49;65229.41;;;0.57;89.44
37132;BME280;23035;50.032;21.978;2024-02-28T10:38:55;65244.19;;;0.69;91.54
37132;BME280;23035;50.032;21.978;2024-02-28T10:44:00;65187.28;;;0.14;93.18
37132;BME280;23035;50.032;21.978;2024-02-28T10:49:06;65229.41;;;0.57;92.18
37132;BME280;23035;50.032;21.978;2024-02-28T10:54:13;65197.91;;;0.24;93.21
37132;BME280;23035;50.032;21.978;2024-02-28T10:59:17;65203.97;;;0.35;92.63
37132;BME280;23035;50.032;21.978;2024-02-28T11:04:23;65221.97;;;0.50;93.22
37132;BME280;23035;50.032;21.978;2024-02-28T11:09:28;65189.84;;;0.14;93.50
37132;BME280;23035;50.032;21.978;2024-02-28T11:14:35;65250.03;;;0.74;90.47
37132;BME280;23035;50.032;21.978;2024-02-28T11:19:41;65231.63;;;0.62;91.68
37132;BME280;23035;50.032;21.978;2024-02-28T11:24:45;65253.75;;;0.78;90.07
37132;BME280;23035;50.032;21.978;2024-02-28T11:29:49;65253.22;;;0.77;91.89
37132;BME280;23035;50.032;21.978;2024-02-28T11:34:55;65221.75;;;0.45;94.32
37132;BME280;23035;50.032;21.978;2024-02-28T11:39:59;65206.44;;;0.33;95.05
37132;BME280;23035;50.032;21.978;2024-02-28T11:45:06;65261.75;;;0.85;90.45
37132;BME280;23035;50.032;21.978;2024-02-28T11:50:15;65249.50;;;0.74;92.63
37132;BME280;23035;50.032;21.978;2024-02-28T11:55:21;65327.94;;;1.54;89.06
37132;BME280;23035;50.032;21.978;2024-02-28T12:00:28;65340.06;;;1.63;88.19
37132;BME280;23035;50.032;21.978;2024-02-28T12:05:37;65335.72;;;1.56;87.90
37132;BME280;23035;50.032;21.978;2024-02-28T12:10:42;65319.53;;;1.36;86.09
37132;BME280;23035;50.032;21.978;2024-02-28T12:15:46;65190.69;;;0.22;96.42
37132;BME280;23035;50.032;21.978;2024-02-28T12:20:53;65272.19;;;0.91;92.86
37132;BME280;23035;50.032;21.978;2024-02-28T12:25:57;65306.44;;;1.28;88.80
37132;BME280;23035;50.032;21.978;2024-02-28T12:31:01;65270.88;;;0.97;90.08
37132;BME280;23035;50.032;21.978;2024-02-28T12:36:13;65315.59;;;1.39;87.88
37132;BME280;23035;50.032;21.978;2024-02-28T12:41:17;65250.13;;;0.77;90.33
37132;BME280;23035;50.032;21.978;2024-02-28T12:46:21;65270.25;;;0.94;91.86
37132;BME280;23035;50.032;21.978;2024-02-28T12:51:39;65218.13;;;0.44;95.05
37132;BME280;23035;50.032;21.978;2024-02-28T12:56:45;65177.28;;;0.07;100.00
37132;BME280;23035;50.032;21.978;2024-02-28T13:01:49;65315.47;;;1.37;91.65
37132;BME280;23035;50.032;21.978;2024-02-28T13:06:55;65301.75;;;1.26;90.60
37132;BME280;23035;50.032;21.978;2024-02-28T13:12:03;65233.88;;;0.54;94.77
37132;BME280;23035;50.032;21.978;2024-02-28T13:17:09;65224.50;;;0.50;94.61
37132;BME280;23035;50.032;21.978;2024-02-28T13:22:19;65166.13;;;-0.04;96.91
37132;BME280;23035;50.032;21.978;2024-02-28T13:27:23;65231.94;;;0.57;94.32
37132;BME280;23035;50.032;21.978;2024-02-28T13:32:29;65213.44;;;0.42;95.77
37132;BME280;23035;50.032;21.978;2024-02-28T13:37:36;65245.34;;;0.72;95.30
37132;BME280;23035;50.032;21.978;2024-02-28T13:42:43;65230.34;;;0.55;96.22
37132;BME280;23035;50.032;21.978;2024-02-28T13:47:47;65204.84;;;0.31;97.71
37132;BME280;23035;50.032;21.978;2024-02-28T13:52:53;65176.75;;;0.07;100.00
37132;BME280;23035;50.032;21.978;2024-02-28T13:58:03;65236.22;;;0.61;96.32
37132;BME280;23035;50.032;21.978;2024-02-28T14:03:07;65193.66;;;0.20;100.00
37132;BME280;23035;50.032;21.978;2024-02-28T14:08:13;65216.00;;;0.42;98.55
37132;BME280;23035;50.032;21.978;2024-02-28T14:13:17;65192.72;;;0.22;100.00
37132;BME280;23035;50.032;21.978;2024-02-28T14:18:21;65214.94;;;0.41;100.00
37132;BME280;23035;50.032;21.978;2024-02-28T14:23:26;65226.63;;;0.52;99.22
37132;BME280;23035;50.032;21.978;2024-02-28T14:28:31;65239.41;;;0.64;98.47
37132;BME280;23035;50.032;21.978;2024-02-28T14:33:35;65261.84;;;0.88;97.05
37132;BME280;23035;50.032;21.978;2024-02-28T14:38:41;65291.75;;;1.19;95.61
37132;BME280;23035;50.032;21.978;2024-02-28T14:43:46;65222.38;;;0.48;99.62
37132;BME280;23035;50.032;21.978;2024-02-28T14:48:51;65163.38;;;-0.09;100.00
37132;BME280;23035;50.032;21.978;2024-02-28T14:53:57;65214.41;;;0.40;100.00
37132;BME280;23035;50.032;21.978;2024-02-28T14:59:01;65239.94;;;0.65;100.00
37132;BME280;23035;50.032;21.978;2024-02-28T15:04:06;65232.06;;;0.60;97.99
37132;BME280;23035;50.032;21.978;2024-02-28T15:09:13;65189.41;;;0.16;100.00
37132;BME280;23035;50.032;21.978;2024-02-28T15:14:18;65243.66;;;0.68;98.62
37132;BME280;23035;50.032;21.978;2024-02-28T15:19:22;65155.38;;;-0.16;100.00
37132;BME280;23035;50.032;21.978;2024-02-28T15:24:28;65211.31;;;0.40;99.63
37132;BME280;23035;50.032;21.978;2024-02-28T15:29:32;65179.94;;;0.10;100.00
37132;BME280;23035;50.032;21.978;2024-02-28T15:34:37;65242.47;;;0.65;98.00
37132;BME280;23035;50.032;21.978;2024-02-28T15:39:44;65226.22;;;0.54;99.31
37132;BME280;23035;50.032;21.978;2024-02-28T15:44:48;65231.94;;;0.57;99.13
37132;BME280;23035;50.032;21.978;2024-02-28T15:49:53;65203.88;;;0.33;100.00
37132;BME280;23035;50.032;21.978;2024-02-28T15:54:58;65270.88;;;0.97;95.22
37132;BME280;23035;50.032;21.978;2024-02-28T16:00:04;65213.22;;;0.37;98.70
37132;BME280;23035;50.032;21.978;2024-02-28T16:05:13;65154.97;;;-0.14;100.00
37132;BME280;23035;50.032;21.978;2024-02-28T16:10:19;65099.59;;;-0.70;100.00
37132;BME280;23035;50.032;21.978;2024-02-28T16:15:23;65108.50;;;-0.64;100.00
37132;BME280;23035;50.032;21.978;2024-02-28T16:20:48;65133.69;;;-0.35;100.00
37132;BME280;23035;50.032;21.978;2024-02-28T16:25:53;65133.06;;;-0.38;100.00
37132;BME280;23035;50.032;21.978;2024-02-28T16:31:00;65161.75;;;-0.10;100.00
37132;BME280;23035;50.032;21.978;2024-02-28T16:36:08;65215.03;;;0.43;100.00
37132;BME280;23035;50.032;21.978;2024-02-28T16:41:15;65115.53;;;-0.54;100.00
37132;BME280;23035;50.032;21.978;2024-02-28T16:46:19;65097.56;;;-0.69;100.00
37132;BME280;23035;50.032;21.978;2024-02-28T16:51:23;65079.94;;;-0.89;100.00
37132;BME280;23035;50.032;21.978;2024-02-28T16:56:31;65141.56;;;-0.30;100.00
37132;BME280;23035;50.032;21.978;2024-02-28T17:01:35;65130.94;;;-0.40;100.00
37132;BME280;23035;50.032;21.978;2024-02-28T17:06:40;65148.47;;;-0.23;100.00
37132;BME280;23035;50.032;21.978;2024-02-28T17:11:45;65158.56;;;-0.13;100.00
37132;BME280;23035;50.032;21.978;2024-02-28T17:16:50;65116.50;;;-0.56;100.00
37132;BME280;23035;50.032;21.978;2024-02-28T17:21:56;65176.13;;;0.04;100.00
37132;BME280;23035;50.032;21.978;2024-02-28T17:27:20;65122.53;;;-0.45;100.00
37132;BME280;23035;50.032;21.978;2024-02-28T17:32:25;65089.09;;;-0.77;100.00
37132;BME280;23035;50.032;21.978;2024-02-28T17:37:30;65107.56;;;-0.62;100.00
37132;BME280;23035;50.032;21.978;2024-02-28T17:42:38;65114.38;;;-0.58;100.00
37132;BME280;23035;50.032;21.978;2024-02-28T17:47:42;65083.56;;;-0.88;100.00
37132;BME280;23035;50.032;21.978;2024-02-28T17:52:46;65122.00;;;-0.46;100.00
37132;BME280;23035;50.032;21.978;2024-02-28T17:57:52;65108.63;;;-0.61;100.00
37132;BME280;23035;50.032;21.978;2024-02-28T18:02:56;65110.44;;;-0.54;100.00
37132;BME280;23035;50.032;21.978;2024-02-28T18:08:01;65081.53;;;-0.87;100.00
37132;BME280;23035;50.032;21.978;2024-02-28T18:13:09;65039.34;;;-1.32;100.00
37132;BME280;23035;50.032;21.978;2024-02-28T18:18:14;64995.28;;;-1.75;100.00
37132;BME280;23035;50.032;21.978;2024-02-28T18:23:19;64957.84;;;-2.06;100.00
37132;BME280;23035;50.032;21.978;2024-02-28T18:28:36;64942.97;;;-2.20;100.00
37132;BME280;23035;50.032;21.978;2024-02-28T18:33:41;64890.88;;;-2.72;100.00
37132;BME280;23035;50.032;21.978;2024-02-28T18:38:48;64951.47;;;-2.12;100.00
37132;BME280;23035;50.032;21.978;2024-02-28T18:43:53;64961.44;;;-2.05;100.00
37132;BME280;23035;50.032;21.978;2024-02-28T18:48:57;64904.78;;;-2.56;100.00
37132;BME280;23035;50.032;21.978;2024-02-28T18:54:02;64960.38;;;-2.06;100.00
37132;BME280;23035;50.032;21.978;2024-02-28T18:59:22;64912.44;;;-2.44;100.00
37132;BME280;23035;50.032;21.978;2024-02-28T19:04:27;64937.66;;;-2.25;100.00
37132;BME280;23035;50.032;21.978;2024-02-28T19:09:34;64970.56;;;-1.93;100.00
37132;BME280;23035;50.032;21.978;2024-02-28T19:14:52;65099.47;;;-0.72;100.00
37132;BME280;23035;50.032;21.978;2024-02-28T19:19:56;64946.81;;;-2.14;100.00
37132;BME280;23035;50.032;21.978;2024-02-28T19:25:00;64865.13;;;-2.92;100.00
37132;BME280;23035;50.032;21.978;2024-02-28T19:30:08;64928.00;;;-2.37;100.00
37132;BME280;23035;50.032;21.978;2024-02-28T19:35:12;65051.66;;;-1.18;100.00
37132;BME280;23035;50.032;21.978;2024-02-28T19:40:22;65048.06;;;-1.19;100.00
37132;BME280;23035;50.032;21.978;2024-02-28T19:45:30;65080.78;;;-0.93;100.00
37132;BME280;23035;50.032;21.978;2024-02-28T19:50:34;65085.16;;;-0.86;100.00
37132;BME280;23035;50.032;21.978;2024-02-28T19:55:38;64992.44;;;-1.70;100.00
37132;BME280;23035;50.032;21.978;2024-02-28T20:00:46;65002.19;;;-1.68;100.00
37132;BME280;23035;50.032;21.978;2024-02-28T20:05:51;65090.97;;;-0.80;100.00
37132;BME280;23035;50.032;21.978;2024-02-28T20:10:55;65083.56;;;-0.88;100.00
37132;BME280;23035;50.032;21.978;2024-02-28T20:16:02;65129.25;;;-0.44;100.00
37132;BME280;23035;50.032;21.978;2024-02-28T20:21:06;65145.72;;;-0.28;100.00
37132;BME280;23035;50.032;21.978;2024-02-28T20:26:23;65059.09;;;-1.11;100.00
37132;BME280;23035;50.032;21.978;2024-02-28T20:31:29;64994.44;;;-1.70;100.00
37132;BME280;23035;50.032;21.978;2024-02-28T20:36:36;65005.59;;;-1.60;100.00
37132;BME280;23035;50.032;21.978;2024-02-28T20:41:44;65004.63;;;-1.58;100.00
37132;BME280;23035;50.032;21.978;2024-02-28T20:46:51;65007.72;;;-1.58;100.00
37132;BME280;23035;50.032;21.978;2024-02-28T20:51:55;64913.25;;;-2.48;100.00
37132;BME280;23035;50.032;21.978;2024-02-28T20:57:00;64846.66;;;-3.07;100.00
37132;BME280;23035;50.032;21.978;2024-02-28T21:02:19;64817.41;;;-3.38;100.00
37132;BME280;23035;50.032;21.978;2024-02-28T21:07:23;64856.00;;;-3.03;100.00
37132;BME280;23035;50.032;21.978;2024-02-28T21:12:47;64928.00;;;-2.37;100.00
37132;BME280;23035;50.032;21.978;2024-02-28T21:17:52;64974.94;;;-1.87;100.00
37132;BME280;23035;50.032;21.978;2024-02-28T21:22:57;64978.53;;;-1.86;100.00
37132;BME280;23035;50.032;21.978;2024-02-28T21:28:01;64881.97;;;-2.78;100.00
37132;BME280;23035;50.032;21.978;2024-02-28T21:33:07;64778.63;;;-3.78;100.00
37132;BME280;23035;50.032;21.978;2024-02-28T21:38:11;64808.59;;;-3.54;100.00
37132;BME280;23035;50.032;21.978;2024-02-28T21:43:15;64784.56;;;-3.69;100.00
37132;BME280;23035;50.032;21.978;2024-02-28T21:48:21;64825.78;;;-3.32;100.00
37132;BME280;23035;50.032;21.978;2024-02-28T21:53:25;64755.31;;;-4.00;100.00
37132;BME280;23035;50.032;21.978;2024-02-28T21:58:29;64673.13;;;-4.81;100.00
37132;BME280;23035;50.032;21.978;2024-02-28T22:03:35;64645.19;;;-5.06;100.00
37132;BME280;23035;50.032;21.978;2024-02-28T22:08:40;64706.06;;;-4.47;100.00
37132;BME280;23035;50.032;21.978;2024-02-28T22:13:44;64682.41;;;-4.77;100.00
37132;BME280;23035;50.032;21.978;2024-02-28T22:18:49;64610.81;;;-5.39;100.00
37132;BME280;23035;50.032;21.978;2024-02-28T22:23:53;64635.13;;;-5.15;100.00
37132;BME280;23035;50.032;21.978;2024-02-28T22:29:00;64582.34;;;-5.64;100.00
37132;BME280;23035;50.032;21.978;2024-02-28T22:34:08;64616.50;;;-5.36;100.00
37132;BME280;23035;50.032;21.978;2024-02-28T22:39:12;64640.97;;;-5.10;100.00
37132;BME280;23035;50.032;21.978;2024-02-28T22:44:16;64585.72;;;-5.68;100.00
37132;BME280;23035;50.032;21.978;2024-02-28T22:49:22;64542.59;;;-6.04;100.00
37132;BME280;23035;50.032;21.978;2024-02-28T22:54:26;64555.81;;;-5.92;100.00
37132;BME280;23035;50.032;21.978;2024-02-28T22:59:30;64564.13;;;-5.86;100.00
37132;BME280;23035;50.032;21.978;2024-02-28T23:04:36;64504.53;;;-6.41;100.00
37132;BME280;23035;50.032;21.978;2024-02-28T23:09:40;64492.16;;;-6.58;100.00
37132;BME280;23035;50.032;21.978;2024-02-28T23:14:44;64470.47;;;-6.79;100.00
37132;BME280;23035;50.032;21.978;2024-02-28T23:19:50;64470.47;;;-6.79;100.00
37132;BME280;23035;50.032;21.978;2024-02-28T23:24:54;64476.28;;;-6.73;100.00
37132;BME280;23035;50.032;21.978;2024-02-28T23:29:58;64522.16;;;-6.31;100.00
37132;BME280;23035;50.032;21.978;2024-02-28T23:35:07;64519.88;;;-6.26;100.00
37132;BME280;23035;50.032;21.978;2024-02-28T23:40:12;64519.09;;;-6.32;100.00
37132;BME280;23035;50.032;21.978;2024-02-28T23:45:18;64541.28;;;-6.11;100.00
37132;BME280;23035;50.032;21.978;2024-02-28T23:50:24;64618.50;;;-5.36;100.00
37132;BME280;23035;50.032;21.978;2024-02-28T23:55:28;64612.81;;;-5.39;100.00
